sensor_id;sensor_type;location;lat;lon;timestamp;temperature;humidity
1524;DHT22;755;53.658;10.118;2023-04-30T00:02:11;5.30;1.00
1524;DHT22;755;53.658;10.118;2023-04-30T00:12:14;5.20;1.00
1524;DHT22;755;53.658;10.118;2023-04-30T00:22:16;5.10;1.00
1524;DHT22;755;53.658;10.118;2023-04-30T00:32:19;5.00;1.00
1524;DHT22;755;53.658;10.118;2023-04-30T00:42:21;4.90;1.00
1524;DHT22;755;53.658;10.118;2023-04-30T00:52:26;4.70;5.00
1524;DHT22;755;53.658;10.118;2023-04-30T01:02:28;4.60;1.00
1524;DHT22;755;53.658;10.118;2023-04-30T01:12:36;4.50;99.90
1524;DHT22;755;53.658;10.118;2023-04-30T01:22:45;4.40;99.90
1524;DHT22;755;53.658;10.118;2023-04-30T01:32:51;4.30;99.90
1524;DHT22;755;53.658;10.118;2023-04-30T01:43:00;4.20;99.90
1524;DHT22;755;53.658;10.118;2023-04-30T01:53:09;4.10;99.90
1524;DHT22;755;53.658;10.118;2023-04-30T02:03:14;3.70;99.90
1524;DHT22;755;53.658;10.118;2023-04-30T02:13:17;3.50;99.90
1524;DHT22;755;53.658;10.118;2023-04-30T02:23:19;3.60;99.90
1524;DHT22;755;53.658;10.118;2023-04-30T02:33:26;3.40;99.90
1524;DHT22;755;53.658;10.118;2023-04-30T02:43:29;3.30;99.90
1524;DHT22;755;53.658;10.118;2023-04-30T02:53:33;3.20;99.90
1524;DHT22;755;53.658;10.118;2023-04-30T03:03:35;3.20;99.90
1524;DHT22;755;53.658;10.118;2023-04-30T03:13:38;3.20;99.90
1524;DHT22;755;53.658;10.118;2023-04-30T03:23:41;3.00;99.90
1524;DHT22;755;53.658;10.118;2023-04-30T03:33:44;2.90;99.90
1524;DHT22;755;53.658;10.118;2023-04-30T03:43:47;2.90;99.90
1524;DHT22;755;53.658;10.118;2023-04-30T03:53:50;2.60;99.90
1524;DHT22;755;53.658;10.118;2023-04-30T04:03:53;2.70;99.90
1524;DHT22;755;53.658;10.118;2023-04-30T04:13:56;2.60;99.90
1524;DHT22;755;53.658;10.118;2023-04-30T04:23:59;2.60;99.90
1524;DHT22;755;53.658;10.118;2023-04-30T04:34:06;2.70;99.90
1524;DHT22;755;53.658;10.118;2023-04-30T04:44:08;2.60;99.90
1524;DHT22;755;53.658;10.118;2023-04-30T04:54:11;2.80;99.90
1524;DHT22;755;53.658;10.118;2023-04-30T05:04:13;3.10;99.90
1524;DHT22;755;53.658;10.118;2023-04-30T05:14:17;3.90;99.90
1524;DHT22;755;53.658;10.118;2023-04-30T05:24:20;5.00;69.30
1524;DHT22;755;53.658;10.118;2023-04-30T05:34:24;5.50;1.00
1524;DHT22;755;53.658;10.118;2023-04-30T05:44:26;6.50;1.00
1524;DHT22;755;53.658;10.118;2023-04-30T05:54:31;6.00;1.00
1524;DHT22;755;53.658;10.118;2023-04-30T06:04:33;6.30;1.00
1524;DHT22;755;53.658;10.118;2023-04-30T06:14:37;7.30;99.90
1524;DHT22;755;53.658;10.118;2023-04-30T06:24:39;7.40;1.00
1524;DHT22;755;53.658;10.118;2023-04-30T06:34:43;7.80;1.00
1524;DHT22;755;53.658;10.118;2023-04-30T06:44:45;8.60;99.90
1524;DHT22;755;53.658;10.118;2023-04-30T06:54:49;8.30;1.00
1524;DHT22;755;53.658;10.118;2023-04-30T07:04:51;8.20;99.90
1524;DHT22;755;53.658;10.118;2023-04-30T07:15:27;8.50;1.00
1524;DHT22;755;53.658;10.118;2023-04-30T07:25:29;7.80;99.90
1524;DHT22;755;53.658;10.118;2023-04-30T07:35:34;8.30;99.90
1524;DHT22;755;53.658;10.118;2023-04-30T07:45:36;8.10;99.90
1524;DHT22;755;53.658;10.118;2023-04-30T07:55:42;8.30;99.90
1524;DHT22;755;53.658;10.118;2023-04-30T08:05:48;9.00;99.90
1524;DHT22;755;53.658;10.118;2023-04-30T08:15:51;10.20;99.90
1524;DHT22;755;53.658;10.118;2023-04-30T08:25:53;9.60;99.90
1524;DHT22;755;53.658;10.118;2023-04-30T08:35:59;9.90;99.70
1524;DHT22;755;53.658;10.118;2023-04-30T08:46:01;11.60;74.60
1524;DHT22;755;53.658;10.118;2023-04-30T08:56:09;12.10;1.00
1524;DHT22;755;53.658;10.118;2023-04-30T09:17:48;13.10;1.00
1524;DHT22;755;53.658;10.118;2023-04-30T09:28:06;12.20;1.00
1524;DHT22;755;53.658;10.118;2023-04-30T09:48:40;13.20;1.00
1524;DHT22;755;53.658;10.118;2023-04-30T09:58:43;13.80;1.00
1524;DHT22;755;53.658;10.118;2023-04-30T10:08:52;12.80;1.00
1524;DHT22;755;53.658;10.118;2023-04-30T10:18:57;14.10;1.00
1524;DHT22;755;53.658;10.118;2023-04-30T10:29:01;14.90;1.00
1524;DHT22;755;53.658;10.118;2023-04-30T10:39:04;15.10;1.00
1524;DHT22;755;53.658;10.118;2023-04-30T10:49:08;14.10;1.00
1524;DHT22;755;53.658;10.118;2023-04-30T10:59:14;13.80;1.00
1524;DHT22;755;53.658;10.118;2023-04-30T11:09:17;14.50;1.00
1524;DHT22;755;53.658;10.118;2023-04-30T11:19:21;13.40;1.00
1524;DHT22;755;53.658;10.118;2023-04-30T11:29:25;14.10;1.00
1524;DHT22;755;53.658;10.118;2023-04-30T11:39:28;12.70;1.00
1524;DHT22;755;53.658;10.118;2023-04-30T11:49:34;13.40;1.00
1524;DHT22;755;53.658;10.118;2023-04-30T11:59:39;13.80;1.00
1524;DHT22;755;53.658;10.118;2023-04-30T12:09:53;14.20;1.00
1524;DHT22;755;53.658;10.118;2023-04-30T12:19:55;14.00;1.00
1524;DHT22;755;53.658;10.118;2023-04-30T12:30:01;13.30;1.00
1524;DHT22;755;53.658;10.118;2023-04-30T12:40:07;14.30;1.00
1524;DHT22;755;53.658;10.118;2023-04-30T12:50:11;14.50;1.00
1524;DHT22;755;53.658;10.118;2023-04-30T13:00:13;13.90;1.00
1524;DHT22;755;53.658;10.118;2023-04-30T13:10:16;13.90;1.00
1524;DHT22;755;53.658;10.118;2023-04-30T13:20:18;14.40;1.00
1524;DHT22;755;53.658;10.118;2023-04-30T13:30:22;14.30;1.00
1524;DHT22;755;53.658;10.118;2023-04-30T13:40:24;16.20;1.00
1524;DHT22;755;53.658;10.118;2023-04-30T13:50:28;16.40;1.00
1524;DHT22;755;53.658;10.118;2023-04-30T14:00:30;16.20;1.00
1524;DHT22;755;53.658;10.118;2023-04-30T14:10:33;14.20;1.00
1524;DHT22;755;53.658;10.118;2023-04-30T14:20:35;15.50;1.00
1524;DHT22;755;53.658;10.118;2023-04-30T14:30:38;15.90;1.00
1524;DHT22;755;53.658;10.118;2023-04-30T14:40:42;16.00;1.00
1524;DHT22;755;53.658;10.118;2023-04-30T14:50:45;14.50;1.00
1524;DHT22;755;53.658;10.118;2023-04-30T15:00:47;14.60;1.00
1524;DHT22;755;53.658;10.118;2023-04-30T15:10:50;14.40;1.00
1524;DHT22;755;53.658;10.118;2023-04-30T15:20:52;14.50;1.00
1524;DHT22;755;53.658;10.118;2023-04-30T15:30:55;13.90;1.00
1524;DHT22;755;53.658;10.118;2023-04-30T15:40:57;13.90;1.00
1524;DHT22;755;53.658;10.118;2023-04-30T15:51:00;14.20;1.00
1524;DHT22;755;53.658;10.118;2023-04-30T16:01:02;14.10;1.00
1524;DHT22;755;53.658;10.118;2023-04-30T16:11:06;13.50;1.00
1524;DHT22;755;53.658;10.118;2023-04-30T16:21:09;13.80;1.00
1524;DHT22;755;53.658;10.118;2023-04-30T16:31:12;13.70;1.00
1524;DHT22;755;53.658;10.118;2023-04-30T16:41:16;13.80;1.00
1524;DHT22;755;53.658;10.118;2023-04-30T16:51:19;13.90;1.00
1524;DHT22;755;53.658;10.118;2023-04-30T17:01:21;13.50;1.00
1524;DHT22;755;53.658;10.118;2023-04-30T17:11:24;13.70;1.00
1524;DHT22;755;53.658;10.118;2023-04-30T17:21:26;13.70;1.00
1524;DHT22;755;53.658;10.118;2023-04-30T17:31:30;13.40;1.00
1524;DHT22;755;53.658;10.118;2023-04-30T17:41:32;13.20;1.00
1524;DHT22;755;53.658;10.118;2023-04-30T17:51:36;12.90;1.00
1524;DHT22;755;53.658;10.118;2023-04-30T18:01:38;13.10;1.00
1524;DHT22;755;53.658;10.118;2023-04-30T18:11:41;12.90;1.00
1524;DHT22;755;53.658;10.118;2023-04-30T18:21:43;12.50;1.00
1524;DHT22;755;53.658;10.118;2023-04-30T18:31:47;12.30;1.00
1524;DHT22;755;53.658;10.118;2023-04-30T18:41:50;11.60;99.90
1524;DHT22;755;53.658;10.118;2023-04-30T18:51:53;11.40;99.90
1524;DHT22;755;53.658;10.118;2023-04-30T19:01:56;11.30;99.90
1524;DHT22;755;53.658;10.118;2023-04-30T19:11:59;11.00;1.00
1524;DHT22;755;53.658;10.118;2023-04-30T19:22:01;10.80;1.00
1524;DHT22;755;53.658;10.118;2023-04-30T19:32:05;10.50;1.00
1524;DHT22;755;53.658;10.118;2023-04-30T19:42:07;10.10;99.90
1524;DHT22;755;53.658;10.118;2023-04-30T19:52:10;9.90;1.00
1524;DHT22;755;53.658;10.118;2023-04-30T20:02:12;9.30;1.00
1524;DHT22;755;53.658;10.118;2023-04-30T20:12:16;9.10;99.90
1524;DHT22;755;53.658;10.118;2023-04-30T20:22:18;9.00;1.00
1524;DHT22;755;53.658;10.118;2023-04-30T20:32:21;8.80;96.50
1524;DHT22;755;53.658;10.118;2023-04-30T20:42:23;8.40;99.90
1524;DHT22;755;53.658;10.118;2023-04-30T20:52:28;8.20;99.90
1524;DHT22;755;53.658;10.118;2023-04-30T21:02:30;8.20;1.00
1524;DHT22;755;53.658;10.118;2023-04-30T21:12:33;8.00;1.00
1524;DHT22;755;53.658;10.118;2023-04-30T21:22:35;7.60;99.90
1524;DHT22;755;53.658;10.118;2023-04-30T21:32:42;7.60;99.90
1524;DHT22;755;53.658;10.118;2023-04-30T21:42:44;7.30;99.90
1524;DHT22;755;53.658;10.118;2023-04-30T21:52:47;7.20;99.90
1524;DHT22;755;53.658;10.118;2023-04-30T22:02:50;7.00;1.00
1524;DHT22;755;53.658;10.118;2023-04-30T22:12:53;6.80;24.20
1524;DHT22;755;53.658;10.118;2023-04-30T22:22:55;6.90;1.00
1524;DHT22;755;53.658;10.118;2023-04-30T22:32:59;6.70;55.20
1524;DHT22;755;53.658;10.118;2023-04-30T22:43:01;6.50;1.00
1524;DHT22;755;53.658;10.118;2023-04-30T22:53:06;6.30;1.00
1524;DHT22;755;53.658;10.118;2023-04-30T23:03:08;6.10;1.00
1524;DHT22;755;53.658;10.118;2023-04-30T23:13:12;6.00;1.00
1524;DHT22;755;53.658;10.118;2023-04-30T23:23:14;5.90;1.00
1524;DHT22;755;53.658;10.118;2023-04-30T23:33:18;5.80;11.10
1524;DHT22;755;53.658;10.118;2023-04-30T23:43:20;5.60;99.90
1524;DHT22;755;53.658;10.118;2023-04-30T23:53:26;5.40;99.90
